Time;durP1;ratioP1;P1;durP2;ratioP2;P2;SDS_P1;SDS_P2;PMS_P1;PMS_P2;Temp;Humidity;BMP_temperature;BMP_pressure;BME280_temperature;BME280_humidity;BME280_pressure;Samples;Min_cycle;Max_cycle;Signal;HPM_P1;HPM_P2
2022/01/04 00:00:49;;;;;;;3.70;1.50;;;9.90;97.60;;;;;;5036774;28;20299;-70
2022/01/04 00:03:15;;;;;;;4.40;1.33;;;9.90;97.80;;;;;;5035482;28;20064;-70
2022/01/04 00:05:41;;;;;;;2.83;1.35;;;9.80;97.90;;;;;;5036515;28;20053;-70
2022/01/04 00:08:10;;;;;;;4.78;1.50;;;9.80;97.90;;;;;;5034654;28;20101;-71
2022/01/04 00:10:36;;;;;;;2.85;1.40;;;9.70;98.00;;;;;;5034905;28;20091;-70
2022/01/04 00:13:24;;;;;;;2.78;1.20;;;9.70;98.00;;;;;;5034995;28;20422;-70
2022/01/04 00:15:53;;;;;;;4.32;1.40;;;9.60;98.00;;;;;;5032213;28;20040;-71
2022/01/04 00:18:19;;;;;;;2.63;1.20;;;9.50;98.00;;;;;;5033982;28;20018;-70
2022/01/04 00:20:46;;;;;;;3.55;1.50;;;9.50;98.00;;;;;;5027419;28;20046;-70
2022/01/04 00:23:13;;;;;;;3.28;1.20;;;9.50;98.00;;;;;;5031960;28;20025;-71
2022/01/04 00:25:39;;;;;;;4.78;1.70;;;9.40;98.00;;;;;;5029767;28;20044;-70
2022/01/04 00:28:07;;;;;;;4.97;1.55;;;9.40;98.00;;;;;;5027699;28;20326;-70
2022/01/04 00:30:40;;;;;;;4.28;1.67;;;9.30;98.00;;;;;;5034777;28;20053;-71
2022/01/04 00:33:07;;;;;;;3.38;1.60;;;9.20;98.00;;;;;;5033559;28;20422;-71
2022/01/04 00:35:36;;;;;;;3.65;1.92;;;9.20;98.00;;;;;;5035376;28;20125;-71
2022/01/04 00:38:02;;;;;;;5.20;1.88;;;9.10;98.00;;;;;;5035320;28;20057;-71
2022/01/04 00:40:31;;;;;;;3.60;1.77;;;9.20;98.00;;;;;;5036350;28;20384;-70
2022/01/04 00:43:00;;;;;;;4.90;1.60;;;9.20;98.00;;;;;;5036014;28;20022;-70
2022/01/04 00:45:31;;;;;;;4.15;2.13;;;9.20;98.00;;;;;;5014771;28;20021;-70
2022/01/04 00:50:28;;;;;;;5.47;1.92;;;9.30;98.00;;;;;;5041230;28;20036;-70
2022/01/04 00:52:55;;;;;;;4.40;1.85;;;9.30;98.00;;;;;;5033431;28;20287;-70
2022/01/04 00:55:21;;;;;;;4.60;1.90;;;9.20;98.00;;;;;;5035646;28;20429;-70
2022/01/04 00:57:47;;;;;;;4.82;2.00;;;9.20;98.00;;;;;;5033844;28;20030;-69
2022/01/04 01:00:15;;;;;;;3.92;1.98;;;9.30;98.00;;;;;;5034067;28;20030;-69
2022/01/04 01:02:40;;;;;;;4.65;1.90;;;9.40;98.00;;;;;;5034263;28;20029;-70
2022/01/04 01:05:07;;;;;;;3.97;1.77;;;9.30;98.00;;;;;;5031239;28;20034;-72
2022/01/04 01:07:34;;;;;;;3.88;1.95;;;9.40;98.00;;;;;;5034710;28;20038;-71
2022/01/04 01:12:38;;;;;;;4.95;1.80;;;9.40;98.00;;;;;;5035883;28;20029;-71
2022/01/04 01:15:05;;;;;;;3.72;1.70;;;9.40;98.00;;;;;;5017958;28;20406;-72
2022/01/04 01:17:31;;;;;;;5.68;2.13;;;9.40;98.00;;;;;;5016362;28;20053;-71
2022/01/04 01:20:02;;;;;;;4.68;2.15;;;9.40;98.00;;;;;;5034662;28;20045;-71
2022/01/04 01:22:28;;;;;;;4.07;1.85;;;9.40;98.00;;;;;;5035642;28;20025;-70
2022/01/04 01:24:53;;;;;;;6.00;2.85;;;9.40;98.00;;;;;;5035457;28;20026;-71
2022/01/04 01:27:19;;;;;;;3.38;1.73;;;9.50;98.00;;;;;;5017887;28;20053;-70
2022/01/04 01:29:47;;;;;;;3.45;1.60;;;9.60;98.00;;;;;;5034716;28;20119;-71
2022/01/04 01:32:13;;;;;;;4.03;2.00;;;9.60;98.00;;;;;;5034101;28;20034;-71
2022/01/04 01:34:41;;;;;;;3.42;1.75;;;9.80;97.70;;;;;;5035734;28;20034;-71
2022/01/04 01:37:09;;;;;;;4.03;1.70;;;9.80;97.50;;;;;;5035493;28;20049;-71
2022/01/04 01:39:35;;;;;;;3.92;1.90;;;9.80;97.50;;;;;;5018233;28;20516;-72
2022/01/04 01:42:02;;;;;;;4.20;2.00;;;9.90;96.50;;;;;;5033492;28;20377;-71
2022/01/04 01:44:29;;;;;;;3.13;1.63;;;10.00;96.40;;;;;;5035460;28;20035;-71
2022/01/04 01:46:55;;;;;;;3.65;1.70;;;10.00;96.20;;;;;;5032625;28;20086;-70
2022/01/04 01:49:21;;;;;;;3.38;1.70;;;10.00;96.20;;;;;;5035630;28;20299;-71
2022/01/04 01:51:47;;;;;;;4.00;1.70;;;10.10;95.90;;;;;;5035392;28;20025;-71
2022/01/04 01:54:13;;;;;;;3.97;1.60;;;10.10;95.70;;;;;;5035300;28;20040;-70
2022/01/04 01:56:39;;;;;;;5.05;1.70;;;10.10;95.60;;;;;;5026022;28;20112;-70
2022/01/04 01:59:06;;;;;;;3.83;1.75;;;10.10;95.50;;;;;;5034711;28;20173;-70
2022/01/04 02:01:32;;;;;;;3.55;1.42;;;10.20;95.10;;;;;;5034300;28;20390;-70
2022/01/04 02:03:58;;;;;;;4.50;1.88;;;10.20;94.70;;;;;;5031855;28;20030;-71
2022/01/04 02:06:24;;;;;;;3.25;1.50;;;10.20;94.40;;;;;;5033385;28;20043;-71
2022/01/04 02:08:50;;;;;;;5.38;1.88;;;10.30;94.30;;;;;;5034821;28;20048;-70
2022/01/04 02:11:17;;;;;;;3.75;1.42;;;10.40;93.50;;;;;;5034998;28;20025;-71
2022/01/04 02:13:43;;;;;;;4.15;1.50;;;10.40;93.40;;;;;;5034598;28;20033;-71
2022/01/04 02:16:10;;;;;;;4.57;1.67;;;10.50;93.00;;;;;;5005090;28;20100;-71
2022/01/04 02:18:36;;;;;;;3.50;1.48;;;10.50;92.90;;;;;;5032295;28;20414;-71
2022/01/04 02:21:01;;;;;;;4.93;2.50;;;10.50;93.20;;;;;;5014198;28;20129;-71
2022/01/04 02:23:27;;;;;;;3.00;1.50;;;10.50;92.80;;;;;;5013685;28;20032;-69
2022/01/04 02:25:53;;;;;;;3.65;1.65;;;10.50;92.60;;;;;;5014478;28;20152;-70
2022/01/04 02:28:20;;;;;;;3.45;1.50;;;10.50;92.10;;;;;;5014257;28;20036;-70
2022/01/04 02:30:48;;;;;;;5.22;1.80;;;10.60;92.20;;;;;;5013738;28;20058;-69
2022/01/04 02:33:15;;;;;;;5.05;2.10;;;10.60;92.20;;;;;;5013541;28;20029;-70
2022/01/04 02:35:40;;;;;;;3.47;1.65;;;10.60;91.70;;;;;;5015176;28;20076;-69
2022/01/04 02:38:06;;;;;;;4.63;2.00;;;10.60;91.70;;;;;;5014923;28;20033;-70
2022/01/04 02:40:32;;;;;;;3.75;1.50;;;10.70;91.30;;;;;;5017133;28;20026;-70
2022/01/04 02:42:59;;;;;;;3.25;1.45;;;10.70;91.00;;;;;;5015988;28;20101;-70
2022/01/04 02:45:25;;;;;;;3.60;1.63;;;10.70;90.90;;;;;;5018726;28;20041;-70
2022/01/04 02:47:51;;;;;;;4.78;1.70;;;10.70;91.10;;;;;;5016856;28;20053;-69
2022/01/04 02:50:17;;;;;;;2.80;1.30;;;10.70;90.80;;;;;;5018652;28;20022;-70
2022/01/04 02:52:42;;;;;;;4.75;2.00;;;10.70;90.80;;;;;;5018085;28;20028;-70
2022/01/04 02:55:12;;;;;;;3.13;1.42;;;10.70;90.70;;;;;;5018100;28;20029;-69
2022/01/04 02:57:39;;;;;;;4.97;1.75;;;10.70;91.30;;;;;;5018100;28;20442;-70
2022/01/04 03:00:08;;;;;;;2.80;1.60;;;10.60;91.40;;;;;;5017478;28;20034;-70
2022/01/04 03:02:34;;;;;;;4.25;1.50;;;10.60;91.60;;;;;;5016814;28;20503;-70
2022/01/04 03:05:00;;;;;;;3.25;1.25;;;10.60;91.20;;;;;;5016331;28;20038;-70
2022/01/04 03:07:25;;;;;;;3.42;1.40;;;10.70;91.10;;;;;;5006687;28;20030;-69
2022/01/04 03:09:51;;;;;;;6.07;1.75;;;10.80;90.40;;;;;;5015731;28;20030;-70
2022/01/04 03:12:17;;;;;;;3.53;1.70;;;10.80;91.00;;;;;;5018146;28;20037;-70
2022/01/04 03:14:42;;;;;;;3.88;1.50;;;10.80;90.80;;;;;;5033012;28;20125;-70
2022/01/04 03:17:08;;;;;;;3.95;1.42;;;10.80;90.80;;;;;;5015411;28;20220;-71
2022/01/04 03:19:34;;;;;;;2.70;1.30;;;10.80;91.00;;;;;;5020462;28;20026;-71
2022/01/04 03:22:00;;;;;;;4.20;1.83;;;10.80;90.90;;;;;;5037594;28;20099;-71
2022/01/04 03:24:28;;;;;;;3.85;1.50;;;10.80;91.10;;;;;;5035303;28;20022;-71
2022/01/04 03:26:54;;;;;;;3.53;1.48;;;10.80;91.30;;;;;;5030481;28;20028;-71
2022/01/04 03:29:22;;;;;;;3.42;1.77;;;10.70;91.70;;;;;;5037658;28;20329;-71
2022/01/04 03:31:48;;;;;;;4.85;1.70;;;10.50;92.70;;;;;;5033692;28;20499;-71
2022/01/04 03:34:14;;;;;;;3.50;1.42;;;10.50;92.70;;;;;;5036343;28;20037;-70
2022/01/04 03:36:40;;;;;;;3.67;1.50;;;10.50;92.70;;;;;;5037835;28;20025;-71
2022/01/04 03:39:11;;;;;;;2.63;1.30;;;10.50;92.90;;;;;;5037586;28;20034;-70
2022/01/04 03:41:39;;;;;;;4.68;1.40;;;10.50;93.00;;;;;;5035518;28;20307;-71
2022/01/04 03:44:07;;;;;;;4.00;1.60;;;10.50;92.90;;;;;;5036948;28;20060;-70
2022/01/04 03:46:32;;;;;;;3.38;1.58;;;10.50;92.80;;;;;;5038114;28;20104;-70
2022/01/04 03:48:58;;;;;;;4.40;1.50;;;10.60;92.60;;;;;;5036206;28;20106;-70
2022/01/04 03:51:24;;;;;;;6.50;2.00;;;10.60;93.00;;;;;;5020108;28;20317;-71
2022/01/04 03:53:49;;;;;;;3.17;1.45;;;10.50;93.30;;;;;;5036967;28;20108;-71
2022/01/04 03:56:15;;;;;;;2.80;1.50;;;10.50;93.70;;;;;;5037884;28;20061;-71
2022/01/04 03:58:44;;;;;;;3.63;1.52;;;10.50;93.60;;;;;;5019835;28;20298;-71
2022/01/04 04:01:09;;;;;;;5.88;1.45;;;10.40;93.80;;;;;;5036711;28;20030;-71
2022/01/04 04:03:35;;;;;;;4.00;1.50;;;10.40;94.40;;;;;;5035442;28;20029;-71
2022/01/04 04:06:01;;;;;;;2.38;1.30;;;10.30;95.10;;;;;;5036054;28;20047;-71
2022/01/04 04:08:26;;;;;;;5.88;1.40;;;10.20;95.60;;;;;;5033000;28;20021;-71
2022/01/04 04:10:52;;;;;;;4.50;1.70;;;10.10;96.20;;;;;;5036890;28;20099;-71
2022/01/04 04:13:18;;;;;;;3.97;1.52;;;10.00;96.70;;;;;;5032585;28;20313;-71
2022/01/04 04:15:46;;;;;;;4.40;1.80;;;9.90;97.60;;;;;;5036309;28;20029;-71
2022/01/04 04:18:13;;;;;;;4.00;1.80;;;9.80;98.00;;;;;;5035861;28;20026;-70
2022/01/04 04:20:39;;;;;;;2.92;1.50;;;9.60;98.00;;;;;;5036418;28;20045;-71
2022/01/04 04:23:06;;;;;;;4.90;1.50;;;9.50;98.00;;;;;;5035262;28;20025;-70
2022/01/04 04:25:33;;;;;;;2.22;1.20;;;9.50;98.00;;;;;;5035912;28;20030;-71
2022/01/04 04:28:01;;;;;;;2.65;1.40;;;9.60;98.00;;;;;;5037139;28;20030;-72
2022/01/04 04:30:27;;;;;;;3.17;1.70;;;9.50;98.00;;;;;;5036753;28;20444;-72
2022/01/04 04:32:53;;;;;;;3.85;1.58;;;9.60;98.00;;;;;;5034944;28;20034;-72
2022/01/04 04:35:19;;;;;;;4.60;1.40;;;9.50;98.00;;;;;;5037061;28;20033;-72
2022/01/04 04:37:44;;;;;;;2.25;1.20;;;9.60;98.00;;;;;;5036796;28;20080;-72
2022/01/04 04:40:11;;;;;;;3.20;1.48;;;9.60;98.00;;;;;;5035571;28;20033;-72
2022/01/04 04:42:37;;;;;;;2.35;1.20;;;9.60;98.00;;;;;;5036181;28;20172;-72
2022/01/04 04:45:04;;;;;;;2.38;1.30;;;9.70;98.00;;;;;;5035003;28;20083;-72
2022/01/04 04:47:29;;;;;;;3.92;1.30;;;9.60;98.00;;;;;;5035613;28;20112;-71
2022/01/04 04:49:55;;;;;;;2.05;1.10;;;9.50;98.00;;;;;;5036778;28;20191;-71
2022/01/04 04:52:21;;;;;;;1.92;1.10;;;9.60;98.00;;;;;;5035657;28;20133;-69
2022/01/04 04:54:47;;;;;;;2.10;1.10;;;9.60;98.00;;;;;;5019118;28;20021;-70
2022/01/04 04:57:14;;;;;;;1.70;0.95;;;9.60;98.00;;;;;;5036284;28;20033;-70
2022/01/04 04:59:39;;;;;;;3.25;1.10;;;9.60;98.00;;;;;;5036621;28;20037;-69
2022/01/04 05:02:07;;;;;;;1.73;1.00;;;9.60;98.00;;;;;;5034292;28;20025;-70
2022/01/04 05:04:33;;;;;;;3.78;1.23;;;9.60;98.00;;;;;;5035857;28;20025;-70
2022/01/04 05:06:59;;;;;;;2.40;1.13;;;9.60;98.00;;;;;;5035892;28;20033;-70
2022/01/04 05:09:25;;;;;;;2.22;1.15;;;9.50;98.00;;;;;;5034858;28;20319;-69
2022/01/04 05:11:51;;;;;;;2.42;0.90;;;9.60;98.00;;;;;;5035645;28;20049;-69
2022/01/04 05:14:17;;;;;;;3.60;1.30;;;9.60;98.00;;;;;;5034368;28;20030;-69
2022/01/04 05:16:43;;;;;;;2.88;1.20;;;9.70;98.00;;;;;;5035951;28;20029;-70
2022/01/04 05:19:08;;;;;;;3.40;1.67;;;9.60;98.00;;;;;;5034347;28;20468;-70
2022/01/04 05:21:34;;;;;;;3.90;1.75;;;9.50;98.00;;;;;;5014439;28;20092;-69
2022/01/04 05:23:59;;;;;;;2.72;1.40;;;9.50;98.00;;;;;;5015718;28;20088;-68
2022/01/04 05:26:25;;;;;;;4.57;1.30;;;9.40;98.00;;;;;;5016181;28;20038;-68
2022/01/04 05:28:51;;;;;;;2.10;1.00;;;9.30;98.00;;;;;;5015189;28;20402;-69
2022/01/04 05:31:17;;;;;;;2.28;1.13;;;9.50;98.00;;;;;;5014463;28;20080;-70
2022/01/04 05:33:42;;;;;;;1.85;0.90;;;9.50;98.00;;;;;;5011932;28;20032;-69
2022/01/04 05:36:08;;;;;;;1.92;1.05;;;9.60;98.00;;;;;;5013405;28;20069;-70
2022/01/04 05:38:34;;;;;;;3.70;1.00;;;9.60;98.00;;;;;;5014783;28;20068;-70
2022/01/04 05:40:59;;;;;;;1.83;1.00;;;9.60;98.00;;;;;;5011790;28;20030;-70
2022/01/04 05:43:25;;;;;;;1.75;1.00;;;9.70;98.00;;;;;;5031308;28;20038;-70
2022/01/04 05:45:51;;;;;;;2.50;1.40;;;9.80;98.00;;;;;;5015555;28;20021;-70
2022/01/04 05:48:20;;;;;;;2.85;0.85;;;9.80;98.00;;;;;;5029884;28;20030;-70
2022/01/04 05:50:46;;;;;;;1.90;0.90;;;9.80;98.00;;;;;;5030838;28;20029;-70
2022/01/04 05:53:12;;;;;;;1.98;1.20;;;9.90;98.00;;;;;;5014617;28;20033;-70
2022/01/04 05:55:38;;;;;;;1.20;0.80;;;9.80;98.00;;;;;;5015815;28;20030;-71
2022/01/04 05:58:04;;;;;;;1.80;0.90;;;9.70;98.00;;;;;;5013294;28;20030;-70
2022/01/04 06:00:29;;;;;;;1.25;0.82;;;9.90;98.00;;;;;;5014603;28;20033;-70
2022/01/04 06:02:55;;;;;;;1.83;1.00;;;9.80;98.00;;;;;;5014360;28;20026;-70
2022/01/04 06:05:21;;;;;;;1.40;0.80;;;9.80;98.00;;;;;;5014747;28;20484;-70
2022/01/04 06:07:46;;;;;;;1.50;0.90;;;9.90;98.00;;;;;;5014953;28;20324;-70
2022/01/04 06:10:14;;;;;;;2.50;0.90;;;10.10;98.00;;;;;;5014165;28;20034;-71
2022/01/04 06:15:12;;;;;;;2.45;1.10;;;10.10;98.00;;;;;;5014599;28;20041;-70
2022/01/04 06:17:41;;;;;;;2.08;0.88;;;10.00;98.00;;;;;;5016256;28;20053;-70
2022/01/04 06:20:09;;;;;;;1.58;0.80;;;10.00;98.00;;;;;;5018375;28;20050;-70
2022/01/04 06:22:37;;;;;;;1.27;0.80;;;10.00;98.00;;;;;;5034083;28;20167;-71
2022/01/04 06:25:03;;;;;;;2.25;0.80;;;10.20;98.00;;;;;;5018314;28;20172;-70
2022/01/04 06:27:29;;;;;;;1.33;0.80;;;10.10;98.00;;;;;;5018862;28;20406;-70
2022/01/04 06:29:55;;;;;;;1.67;0.80;;;10.30;98.00;;;;;;5019398;28;20036;-71
2022/01/04 06:32:21;;;;;;;1.83;1.00;;;10.40;98.00;;;;;;5017000;28;20037;-71
2022/01/04 06:34:50;;;;;;;2.22;0.80;;;10.40;98.00;;;;;;5009310;28;20104;-70
2022/01/04 06:37:17;;;;;;;1.20;0.80;;;10.30;98.00;;;;;;5019352;28;20112;-70
2022/01/04 06:39:46;;;;;;;1.85;1.00;;;10.40;98.00;;;;;;5019487;28;20025;-70
2022/01/04 06:42:12;;;;;;;1.55;0.90;;;10.40;98.00;;;;;;5016297;28;20029;-70
2022/01/04 06:44:38;;;;;;;2.05;0.90;;;10.40;98.00;;;;;;5018207;28;20339;-71
2022/01/04 06:47:04;;;;;;;1.45;0.90;;;10.50;98.00;;;;;;5032119;28;20160;-70
2022/01/04 06:49:30;;;;;;;1.40;0.90;;;10.60;98.00;;;;;;5018595;28;20474;-70
2022/01/04 06:51:56;;;;;;;1.88;1.00;;;10.80;98.00;;;;;;5017956;28;20034;-70
2022/01/04 06:54:22;;;;;;;1.63;0.82;;;10.80;98.00;;;;;;5033981;28;20438;-71
2022/01/04 06:56:48;;;;;;;2.78;0.90;;;10.80;98.00;;;;;;5018567;28;20033;-71
2022/01/04 06:59:15;;;;;;;2.38;0.93;;;10.80;98.00;;;;;;5034224;28;20045;-71
2022/01/04 07:01:41;;;;;;;2.08;0.95;;;10.80;98.00;;;;;;5018492;28;20156;-70
2022/01/04 07:04:07;;;;;;;1.92;0.85;;;10.80;98.00;;;;;;5017110;28;20033;-71
2022/01/04 07:06:33;;;;;;;1.77;0.90;;;10.90;98.00;;;;;;5015117;28;20076;-70
2022/01/04 07:08:59;;;;;;;2.17;0.93;;;10.80;98.00;;;;;;5013150;28;20419;-70
2022/01/04 07:11:25;;;;;;;1.85;1.00;;;11.00;98.00;;;;;;5018112;28;20030;-70
2022/01/04 07:13:51;;;;;;;2.72;1.00;;;11.10;98.00;;;;;;5017085;28;20029;-70
2022/01/04 07:16:18;;;;;;;1.85;1.00;;;11.20;98.00;;;;;;5013372;28;20304;-69
2022/01/04 07:18:48;;;;;;;3.30;1.10;;;11.30;98.00;;;;;;5013187;28;20026;-70
2022/01/04 07:21:15;;;;;;;2.38;1.20;;;11.30;98.00;;;;;;5034414;28;20042;-72
2022/01/04 07:23:41;;;;;;;2.80;1.10;;;11.20;98.00;;;;;;5037306;28;20601;-71
2022/01/04 07:26:11;;;;;;;2.22;1.00;;;11.20;98.00;;;;;;5038669;28;20080;-71
2022/01/04 07:28:38;;;;;;;1.90;0.95;;;11.30;98.00;;;;;;5036859;28;20017;-71
2022/01/04 07:31:04;;;;;;;2.60;0.90;;;11.40;98.00;;;;;;5035911;28;20052;-71
2022/01/04 07:33:30;;;;;;;3.22;1.25;;;11.40;98.00;;;;;;5016901;28;20030;-71
2022/01/04 07:35:55;;;;;;;2.75;1.08;;;11.40;98.00;;;;;;5036294;28;20060;-71
2022/01/04 07:38:21;;;;;;;3.10;1.13;;;11.50;98.00;;;;;;5034950;28;20510;-71
2022/01/04 07:40:47;;;;;;;3.00;1.10;;;11.40;98.00;;;;;;5037282;28;20033;-71
2022/01/04 07:43:14;;;;;;;2.47;1.13;;;11.50;98.00;;;;;;5035021;28;20013;-71
2022/01/04 07:45:40;;;;;;;2.13;1.10;;;11.30;98.00;;;;;;5035811;28;20021;-71
2022/01/04 07:48:10;;;;;;;2.17;0.95;;;11.30;98.00;;;;;;5034593;28;20299;-71
2022/01/04 07:50:37;;;;;;;1.85;1.00;;;11.30;98.00;;;;;;5037334;28;20155;-70
2022/01/04 07:53:02;;;;;;;3.35;1.35;;;11.40;98.00;;;;;;5037899;28;20068;-71
2022/01/04 07:55:31;;;;;;;2.53;1.27;;;11.60;97.60;;;;;;5036608;28;20030;-71
2022/01/04 07:57:56;;;;;;;2.83;1.23;;;11.60;97.60;;;;;;5035960;28;20029;-70
2022/01/04 08:00:22;;;;;;;2.78;1.30;;;11.80;97.20;;;;;;5036884;28;20429;-71
2022/01/04 08:02:48;;;;;;;4.45;1.20;;;11.90;96.70;;;;;;5035941;28;20049;-71
2022/01/04 08:05:13;;;;;;;3.63;1.20;;;11.90;96.50;;;;;;5036496;28;20498;-71
2022/01/04 08:07:40;;;;;;;2.70;1.40;;;12.10;95.60;;;;;;5036999;28;20111;-70
2022/01/04 08:10:06;;;;;;;3.05;1.10;;;12.20;95.30;;;;;;5036579;28;20060;-71
2022/01/04 08:12:32;;;;;;;2.42;1.13;;;12.20;94.90;;;;;;5036795;28;20057;-70
2022/01/04 08:14:57;;;;;;;2.72;1.17;;;12.40;94.10;;;;;;5037473;28;20029;-70
2022/01/04 08:17:23;;;;;;;4.75;1.80;;;12.40;94.30;;;;;;5035960;28;20029;-71
2022/01/04 08:19:52;;;;;;;3.38;1.20;;;12.40;94.40;;;;;;5036505;28;20435;-70
2022/01/04 08:22:18;;;;;;;3.38;1.45;;;12.40;94.40;;;;;;5028218;28;20036;-70
2022/01/04 08:24:43;;;;;;;3.58;1.60;;;12.20;95.30;;;;;;5033188;28;20584;-70
2022/01/04 08:27:09;;;;;;;2.90;1.10;;;12.00;96.10;;;;;;5036628;28;20112;-70
2022/01/04 08:29:35;;;;;;;3.10;1.10;;;12.20;95.70;;;;;;5019557;28;20421;-70
2022/01/04 08:32:01;;;;;;;2.75;1.10;;;12.30;94.70;;;;;;5034483;28;20025;-70
2022/01/04 08:34:27;;;;;;;4.47;1.35;;;12.50;93.80;;;;;;5035995;28;20458;-70
2022/01/04 08:36:52;;;;;;;2.70;1.17;;;12.60;93.60;;;;;;5033996;28;20434;-70
2022/01/04 08:39:19;;;;;;;2.30;1.10;;;12.60;93.50;;;;;;5036192;28;20037;-70
2022/01/04 08:41:50;;;;;;;3.70;1.35;;;12.60;93.20;;;;;;5034763;28;20065;-70
2022/01/04 08:44:16;;;;;;;3.05;1.10;;;12.20;95.70;;;;;;5037240;28;20025;-71
2022/01/04 08:46:41;;;;;;;4.47;1.35;;;11.60;97.90;;;;;;5035317;28;20164;-71
2022/01/04 08:49:08;;;;;;;3.40;1.30;;;11.40;98.00;;;;;;5033380;28;20048;-71
2022/01/04 08:51:34;;;;;;;3.30;1.60;;;11.30;98.00;;;;;;5035543;28;20322;-70
2022/01/04 08:54:00;;;;;;;3.08;1.20;;;11.40;98.00;;;;;;5036332;28;20331;-71
2022/01/04 08:56:26;;;;;;;2.88;1.42;;;11.30;98.00;;;;;;5036443;28;20022;-71
2022/01/04 08:58:52;;;;;;;4.32;1.40;;;11.30;98.00;;;;;;5037202;28;20104;-71
2022/01/04 09:01:18;;;;;;;3.65;1.98;;;11.20;98.00;;;;;;5035637;28;20032;-71
2022/01/04 09:03:44;;;;;;;2.63;1.30;;;11.20;98.00;;;;;;5035341;28;20033;-71
2022/01/04 09:06:11;;;;;;;3.10;1.50;;;11.30;98.00;;;;;;5035836;28;20025;-71
2022/01/04 09:08:36;;;;;;;4.50;1.50;;;11.20;98.00;;;;;;5036689;28;20017;-71
2022/01/04 09:11:03;;;;;;;2.95;1.40;;;11.10;98.00;;;;;;5036799;28;20028;-71
2022/01/04 09:13:35;;;;;;;3.28;1.33;;;11.10;98.00;;;;;;5036041;28;20369;-71
2022/01/04 09:21:21;;;;;;;3.40;1.60;;;11.10;98.00;;;;;;5035036;28;20099;-71
2022/01/04 09:23:48;;;;;;;3.33;1.60;;;11.10;98.00;;;;;;5035705;28;21889;-70
2022/01/04 09:26:17;;;;;;;2.50;1.38;;;11.20;98.00;;;;;;5020353;28;20026;-70
2022/01/04 09:28:43;;;;;;;2.40;1.25;;;11.30;98.00;;;;;;5020329;28;20032;-70
2022/01/04 09:31:10;;;;;;;4.40;1.70;;;11.30;98.00;;;;;;5031603;28;20030;-71
2022/01/04 09:33:36;;;;;;;6.07;1.52;;;11.30;98.00;;;;;;5033891;28;20489;-71
2022/01/04 09:36:04;;;;;;;4.63;2.30;;;11.10;98.00;;;;;;5035890;28;20100;-71
2022/01/04 09:38:29;;;;;;;4.28;1.80;;;11.00;98.00;;;;;;5034566;28;20036;-71
2022/01/04 09:40:55;;;;;;;7.93;1.90;;;11.00;98.00;;;;;;5036114;28;20108;-71
2022/01/04 09:43:22;;;;;;;4.38;1.60;;;11.00;98.00;;;;;;5035523;28;20056;-71
2022/01/04 09:45:48;;;;;;;5.68;1.60;;;10.90;98.00;;;;;;5036349;28;20022;-71
2022/01/04 09:48:14;;;;;;;3.25;1.65;;;11.00;98.00;;;;;;5021856;28;20080;-71
2022/01/04 09:50:41;;;;;;;3.55;1.70;;;11.00;98.00;;;;;;5030488;28;20464;-71
2022/01/04 09:53:09;;;;;;;3.78;1.70;;;10.90;98.00;;;;;;5035395;28;20036;-71
2022/01/04 09:55:42;;;;;;;6.03;2.40;;;10.90;98.00;;;;;;5035050;28;20426;-71
2022/01/04 09:58:07;;;;;;;7.07;1.80;;;10.90;98.00;;;;;;5035203;28;20410;-71
2022/01/04 10:00:33;;;;;;;5.18;2.53;;;10.90;98.00;;;;;;5033975;28;20079;-71
2022/01/04 10:03:14;;;;;;;3.90;1.92;;;10.90;98.00;;;;;;5012671;28;20095;-71
2022/01/04 10:05:40;;;;;;;4.60;1.95;;;10.90;98.00;;;;;;5034258;28;20481;-70
2022/01/04 10:08:08;;;;;;;4.45;1.65;;;11.00;98.00;;;;;;5035553;28;20029;-70
2022/01/04 10:10:35;;;;;;;5.03;1.75;;;11.10;98.00;;;;;;5035757;28;20079;-70
2022/01/04 10:13:07;;;;;;;5.35;2.30;;;11.10;98.00;;;;;;5017306;28;20025;-69
2022/01/04 10:15:40;;;;;;;5.82;2.47;;;11.00;98.00;;;;;;5035307;28;20033;-70
2022/01/04 10:18:18;;;;;;;3.25;1.40;;;11.00;98.00;;;;;;5033028;28;20034;-72
2022/01/04 10:21:02;;;;;;;5.90;2.22;;;11.00;98.00;;;;;;5035136;28;20079;-71
2022/01/04 10:23:29;;;;;;;4.28;1.80;;;11.10;98.00;;;;;;5035047;28;20037;-71
2022/01/04 10:26:04;;;;;;;4.95;1.70;;;11.20;98.00;;;;;;5034873;28;20057;-71
2022/01/04 10:28:41;;;;;;;5.47;2.28;;;11.20;98.00;;;;;;5035682;28;20037;-71
2022/01/04 10:31:09;;;;;;;4.15;1.80;;;11.20;98.00;;;;;;5033203;28;20468;-71
2022/01/04 10:33:36;;;;;;;3.63;1.75;;;11.30;98.00;;;;;;5034054;28;20053;-71
2022/01/04 10:36:11;;;;;;;3.30;1.55;;;11.20;98.00;;;;;;5035171;28;20025;-71
2022/01/04 10:38:40;;;;;;;4.70;1.73;;;11.40;98.00;;;;;;5035622;28;20118;-71
2022/01/04 10:41:24;;;;;;;4.03;1.75;;;11.40;98.00;;;;;;5017215;28;20167;-70
2022/01/04 10:44:03;;;;;;;5.15;2.20;;;11.40;98.00;;;;;;5034478;28;20021;-71
2022/01/04 10:46:35;;;;;;;4.00;1.90;;;11.50;98.00;;;;;;5034461;28;20021;-71
2022/01/04 10:49:12;;;;;;;6.28;1.85;;;11.50;98.00;;;;;;5034198;28;20029;-70
2022/01/04 10:51:37;;;;;;;4.15;1.50;;;11.50;98.00;;;;;;5035219;28;20349;-71
2022/01/04 10:54:06;;;;;;;3.28;1.52;;;11.50;98.00;;;;;;5017312;28;20029;-70
2022/01/04 10:56:38;;;;;;;3.58;1.77;;;11.60;98.00;;;;;;5034758;28;20041;-71
2022/01/04 10:59:10;;;;;;;3.10;1.67;;;11.80;97.90;;;;;;5034961;28;20018;-70
2022/01/04 11:01:41;;;;;;;5.20;2.08;;;11.80;97.90;;;;;;5015591;28;20446;-70
2022/01/04 11:04:14;;;;;;;4.82;1.88;;;11.80;98.00;;;;;;5034921;28;20237;-69
2022/01/04 11:06:40;;;;;;;7.65;2.65;;;12.00;97.10;;;;;;5028335;28;20104;-70
2022/01/04 11:09:08;;;;;;;4.10;1.95;;;12.00;97.10;;;;;;5038486;28;20483;-71
2022/01/04 11:11:34;;;;;;;5.03;1.88;;;12.10;97.00;;;;;;5038427;28;20426;-70
2022/01/04 11:14:00;;;;;;;3.67;1.70;;;12.10;97.00;;;;;;5038987;28;20049;-71
2022/01/04 11:16:28;;;;;;;5.45;1.60;;;12.10;97.20;;;;;;5026492;28;20037;-71
2022/01/04 11:18:58;;;;;;;5.40;2.10;;;12.10;97.40;;;;;;5023110;28;20025;-71
2022/01/04 11:21:34;;;;;;;5.20;1.90;;;11.90;98.00;;;;;;5038073;28;20054;-71
2022/01/04 11:24:05;;;;;;;5.82;2.00;;;11.80;98.00;;;;;;5037289;28;20115;-71
2022/01/04 11:26:31;;;;;;;5.25;2.20;;;11.70;98.00;;;;;;5037741;28;20101;-71
2022/01/04 11:28:58;;;;;;;5.78;2.50;;;11.60;98.00;;;;;;5037609;28;20330;-70
2022/01/04 11:31:45;;;;;;;4.53;2.25;;;11.60;98.00;;;;;;5037711;28;20036;-70
2022/01/04 11:34:16;;;;;;;4.93;2.00;;;11.50;98.00;;;;;;5020319;28;20030;-70
2022/01/04 11:36:46;;;;;;;7.93;2.78;;;11.40;98.00;;;;;;5038145;28;20021;-70
2022/01/04 11:39:33;;;;;;;5.63;3.00;;;11.30;98.00;;;;;;5036544;28;20036;-71
2022/01/04 11:42:07;;;;;;;5.82;2.75;;;11.10;98.00;;;;;;5036272;28;20029;-71
2022/01/04 11:44:35;;;;;;;4.40;2.40;;;11.10;98.00;;;;;;5038348;28;20426;-71
2022/01/04 11:47:15;;;;;;;6.78;3.42;;;11.00;98.00;;;;;;5035302;28;20129;-71
2022/01/04 11:50:07;;;;;;;8.95;5.32;;;10.90;98.00;;;;;;5019572;28;20156;-71
2022/01/04 11:52:37;;;;;;;6.40;3.88;;;10.90;98.00;;;;;;5028396;28;20021;-71
2022/01/04 11:55:22;;;;;;;7.80;3.65;;;10.80;98.00;;;;;;5037734;28;20030;-71
2022/01/04 11:57:52;;;;;;;10.70;6.18;;;10.80;98.00;;;;;;5037852;28;20101;-71
2022/01/04 12:00:29;;;;;;;7.38;4.43;;;10.80;98.00;;;;;;5036870;28;20064;-71
2022/01/04 12:03:13;;;;;;;7.82;5.10;;;10.90;98.00;;;;;;5033284;28;20017;-71
2022/01/04 12:05:54;;;;;;;5.63;3.22;;;10.80;98.00;;;;;;5025362;28;20109;-71
2022/01/04 12:08:24;;;;;;;7.47;3.45;;;10.90;98.00;;;;;;5034153;28;20030;-70
2022/01/04 12:10:51;;;;;;;5.72;3.00;;;10.90;98.00;;;;;;5032804;28;20312;-70
2022/01/04 12:13:21;;;;;;;8.18;3.67;;;10.90;98.00;;;;;;5034992;28;20018;-69
2022/01/04 12:15:51;;;;;;;6.13;3.20;;;10.80;98.00;;;;;;5027535;28;20500;-70
2022/01/04 12:18:23;;;;;;;5.78;2.60;;;10.80;98.00;;;;;;5011564;28;20389;-70
2022/01/04 12:20:48;;;;;;;6.97;3.22;;;10.90;98.00;;;;;;5034425;28;20052;-69
2022/01/04 12:23:43;;;;;;;7.55;3.17;;;10.90;98.00;;;;;;5026567;28;20033;-70
2022/01/04 12:26:12;;;;;;;;;;;10.90;98.00;;;;;;5026520;28;20112;-69
2022/01/04 12:28:45;;;;;;;7.45;4.15;;;10.90;98.00;;;;;;5017946;28;19909;-70
2022/01/04 12:31:17;;;;;;;6.90;3.80;;;10.90;98.00;;;;;;5034019;28;20087;-70
2022/01/04 12:33:45;;;;;;;4.63;3.00;;;10.80;98.00;;;;;;5017945;28;20124;-69
2022/01/04 12:36:23;;;;;;;5.60;2.05;;;10.80;98.00;;;;;;5035418;28;20449;-69
2022/01/04 12:38:49;;;;;;;7.30;2.00;;;10.90;98.00;;;;;;5036695;28;20104;-71
2022/01/04 12:41:16;;;;;;;6.35;2.33;;;10.90;98.00;;;;;;5036362;28;20029;-70
2022/01/04 12:43:47;;;;;;;4.90;2.10;;;10.80;98.00;;;;;;5020272;28;20032;-70
2022/01/04 12:46:23;;;;;;;3.80;1.88;;;10.70;98.00;;;;;;5036299;28;20060;-70
2022/01/04 12:48:51;;;;;;;3.88;1.95;;;10.80;98.00;;;;;;5034371;28;20024;-70
2022/01/04 12:51:31;;;;;;;4.35;1.65;;;10.70;98.00;;;;;;5035954;28;20021;-69
2022/01/04 12:54:03;;;;;;;3.83;1.65;;;10.60;98.00;;;;;;5032450;28;20029;-70
2022/01/04 12:56:30;;;;;;;3.72;1.90;;;10.60;98.00;;;;;;5018864;28;20042;-70
2022/01/04 12:58:56;;;;;;;4.03;2.65;;;10.60;98.00;;;;;;5031891;28;20036;-70
2022/01/04 13:01:28;;;;;;;3.72;1.60;;;10.60;98.00;;;;;;5034489;28;20131;-69
2022/01/04 13:03:54;;;;;;;3.72;1.70;;;10.60;98.00;;;;;;5030784;28;20057;-70
2022/01/04 13:06:21;;;;;;;4.38;1.90;;;10.50;98.00;;;;;;5022237;28;20080;-70